Matfield Green, Kansas
Current Conditions -  °F | °C
As of 2:53 PM on Friday 24 Oct 2014 (Local Time) from KEMP Reporting Station
Clear Clear  
Wind Chill: 77°   Ceiling: Unl
Heat Index: 79°   Visibility: 10mi
Dew Point: 61°   Wind: 14mph
Humidity: 58%   Direction: 230°SW
Pressure: 29.99"   Gusts: NA
Location:  38.16°N, 96.56°W
Report Text: KEMP 241953Z AUTO 23012KT 10SM CLR 25/16 A2999 RMK AO2 SLP149 T02500161
Loading
Personal Weather Stations






























Interactive Weather Map
Tropical Storm Tracking
New forecast layout! Learn more

10-Day Weather Forecast

Advertisements
Track Severe Weather on mobile